sensor_id;sensor_type;location;lat;lon;timestamp;temperature;humidity
69464;DHT22;56665;41.106;16.688;2023-02-01T00:02:11;6.95;70.02
69464;DHT22;56665;41.106;16.688;2023-02-01T00:05:14;6.96;69.75
69464;DHT22;56665;41.106;16.688;2023-02-01T00:08:20;7.00;69.85
69464;DHT22;56665;41.106;16.688;2023-02-01T00:11:24;6.95;69.55
69464;DHT22;56665;41.106;16.688;2023-02-01T00:14:28;6.92;69.57
69464;DHT22;56665;41.106;16.688;2023-02-01T00:17:33;6.91;69.48
69464;DHT22;56665;41.106;16.688;2023-02-01T00:20:37;6.91;69.71
69464;DHT22;56665;41.106;16.688;2023-02-01T00:23:41;6.82;69.99
69464;DHT22;56665;41.106;16.688;2023-02-01T00:26:45;6.74;70.21
69464;DHT22;56665;41.106;16.688;2023-02-01T00:29:50;6.58;70.74
69464;DHT22;56665;41.106;16.688;2023-02-01T00:32:55;6.51;70.85
69464;DHT22;56665;41.106;16.688;2023-02-01T00:36:00;6.44;71.15
69464;DHT22;56665;41.106;16.688;2023-02-01T00:39:05;6.40;71.58
69464;DHT22;56665;41.106;16.688;2023-02-01T00:42:09;6.42;71.08
69464;DHT22;56665;41.106;16.688;2023-02-01T00:45:13;6.48;70.84
69464;DHT22;56665;41.106;16.688;2023-02-01T00:48:17;6.41;70.88
69464;DHT22;56665;41.106;16.688;2023-02-01T00:51:24;6.33;71.00
69464;DHT22;56665;41.106;16.688;2023-02-01T00:54:29;6.27;71.04
69464;DHT22;56665;41.106;16.688;2023-02-01T00:57:34;6.21;71.24
69464;DHT22;56665;41.106;16.688;2023-02-01T01:00:38;6.18;71.45
69464;DHT22;56665;41.106;16.688;2023-02-01T01:03:46;6.16;71.38
69464;DHT22;56665;41.106;16.688;2023-02-01T01:06:50;6.14;71.52
69464;DHT22;56665;41.106;16.688;2023-02-01T01:09:54;6.11;71.31
69464;DHT22;56665;41.106;16.688;2023-02-01T01:12:59;6.10;71.11
69464;DHT22;56665;41.106;16.688;2023-02-01T01:16:04;6.14;71.37
69464;DHT22;56665;41.106;16.688;2023-02-01T01:19:08;6.18;70.92
69464;DHT22;56665;41.106;16.688;2023-02-01T01:22:15;6.23;71.25
69464;DHT22;56665;41.106;16.688;2023-02-01T01:25:18;6.24;70.98
69464;DHT22;56665;41.106;16.688;2023-02-01T01:28:22;6.23;71.04
69464;DHT22;56665;41.106;16.688;2023-02-01T01:31:26;6.26;70.97
69464;DHT22;56665;41.106;16.688;2023-02-01T01:34:31;6.26;70.88
69464;DHT22;56665;41.106;16.688;2023-02-01T01:37:35;6.24;70.61
69464;DHT22;56665;41.106;16.688;2023-02-01T01:40:39;6.26;71.01
69464;DHT22;56665;41.106;16.688;2023-02-01T01:43:57;6.28;69.99
69464;DHT22;56665;41.106;16.688;2023-02-01T01:47:03;6.26;70.48
69464;DHT22;56665;41.106;16.688;2023-02-01T01:50:08;6.20;70.74
69464;DHT22;56665;41.106;16.688;2023-02-01T01:53:19;6.09;70.75
69464;DHT22;56665;41.106;16.688;2023-02-01T01:56:25;6.03;70.95
69464;DHT22;56665;41.106;16.688;2023-02-01T01:59:31;6.02;71.09
69464;DHT22;56665;41.106;16.688;2023-02-01T02:02:38;6.00;71.44
69464;DHT22;56665;41.106;16.688;2023-02-01T02:05:43;6.06;71.29
69464;DHT22;56665;41.106;16.688;2023-02-01T02:08:48;6.11;70.94
69464;DHT22;56665;41.106;16.688;2023-02-01T02:11:51;6.13;70.65
69464;DHT22;56665;41.106;16.688;2023-02-01T02:14:56;6.17;70.49
69464;DHT22;56665;41.106;16.688;2023-02-01T02:18:17;6.16;69.90
69464;DHT22;56665;41.106;16.688;2023-02-01T02:25:01;6.07;70.31
69464;DHT22;56665;41.106;16.688;2023-02-01T02:34:54;6.04;71.09
69464;DHT22;56665;41.106;16.688;2023-02-01T02:39:12;6.06;70.23
69464;DHT22;56665;41.106;16.688;2023-02-01T02:45:47;6.09;70.06
69464;DHT22;56665;41.106;16.688;2023-02-01T02:49:44;6.10;69.42
69464;DHT22;56665;41.106;16.688;2023-02-01T02:53:21;6.10;69.28
69464;DHT22;56665;41.106;16.688;2023-02-01T02:56:49;6.09;69.29
69464;DHT22;56665;41.106;16.688;2023-02-01T03:00:27;6.09;69.13
69464;DHT22;56665;41.106;16.688;2023-02-01T03:03:50;6.07;69.27
69464;DHT22;56665;41.106;16.688;2023-02-01T03:11:06;6.03;69.69
69464;DHT22;56665;41.106;16.688;2023-02-01T03:14:13;6.06;69.01
69464;DHT22;56665;41.106;16.688;2023-02-01T03:17:27;6.03;69.38
69464;DHT22;56665;41.106;16.688;2023-02-01T03:20:36;6.04;68.73
69464;DHT22;56665;41.106;16.688;2023-02-01T03:23:44;6.00;69.10
69464;DHT22;56665;41.106;16.688;2023-02-01T03:26:55;6.00;69.07
69464;DHT22;56665;41.106;16.688;2023-02-01T03:30:21;5.97;69.38
69464;DHT22;56665;41.106;16.688;2023-02-01T03:33:26;5.96;69.24
69464;DHT22;56665;41.106;16.688;2023-02-01T03:37:09;5.97;69.06
69464;DHT22;56665;41.106;16.688;2023-02-01T03:40:14;5.93;68.84
69464;DHT22;56665;41.106;16.688;2023-02-01T03:43:19;5.87;68.45
69464;DHT22;56665;41.106;16.688;2023-02-01T03:46:32;5.86;68.81
69464;DHT22;56665;41.106;16.688;2023-02-01T03:49:45;5.89;69.25
69464;DHT22;56665;41.106;16.688;2023-02-01T03:53:10;5.85;69.18
69464;DHT22;56665;41.106;16.688;2023-02-01T03:56:15;5.78;69.02
69464;DHT22;56665;41.106;16.688;2023-02-01T03:59:22;5.73;69.16
69464;DHT22;56665;41.106;16.688;2023-02-01T04:02:27;5.71;69.49
69464;DHT22;56665;41.106;16.688;2023-02-01T04:05:32;5.71;69.25
69464;DHT22;56665;41.106;16.688;2023-02-01T04:08:39;5.71;69.27
69464;DHT22;56665;41.106;16.688;2023-02-01T04:11:43;5.72;68.97
69464;DHT22;56665;41.106;16.688;2023-02-01T04:14:47;5.72;68.47
69464;DHT22;56665;41.106;16.688;2023-02-01T04:17:51;5.71;68.67
69464;DHT22;56665;41.106;16.688;2023-02-01T04:20:55;5.71;68.72
69464;DHT22;56665;41.106;16.688;2023-02-01T04:23:59;5.71;68.98
69464;DHT22;56665;41.106;16.688;2023-02-01T04:27:03;5.72;68.85
69464;DHT22;56665;41.106;16.688;2023-02-01T04:30:09;5.71;69.19
69464;DHT22;56665;41.106;16.688;2023-02-01T04:33:13;5.68;68.86
69464;DHT22;56665;41.106;16.688;2023-02-01T04:36:17;5.66;68.46
69464;DHT22;56665;41.106;16.688;2023-02-01T04:39:22;5.66;68.51
69464;DHT22;56665;41.106;16.688;2023-02-01T04:42:26;5.58;68.55
69464;DHT22;56665;41.106;16.688;2023-02-01T04:45:30;5.59;68.39
69464;DHT22;56665;41.106;16.688;2023-02-01T04:48:34;5.59;68.64
69464;DHT22;56665;41.106;16.688;2023-02-01T04:51:38;5.56;68.71
69464;DHT22;56665;41.106;16.688;2023-02-01T04:54:42;5.56;68.93
69464;DHT22;56665;41.106;16.688;2023-02-01T04:57:47;5.54;68.62
69464;DHT22;56665;41.106;16.688;2023-02-01T05:00:51;5.56;68.77
69464;DHT22;56665;41.106;16.688;2023-02-01T05:03:55;5.55;68.52
69464;DHT22;56665;41.106;16.688;2023-02-01T05:07:00;5.51;68.98
69464;DHT22;56665;41.106;16.688;2023-02-01T05:10:03;5.55;69.02
69464;DHT22;56665;41.106;16.688;2023-02-01T05:13:08;5.56;69.22
69464;DHT22;56665;41.106;16.688;2023-02-01T05:16:32;5.66;69.31
69464;DHT22;56665;41.106;16.688;2023-02-01T05:19:36;5.72;69.26
69464;DHT22;56665;41.106;16.688;2023-02-01T05:22:41;5.78;68.62
69464;DHT22;56665;41.106;16.688;2023-02-01T05:25:45;5.75;68.88
69464;DHT22;56665;41.106;16.688;2023-02-01T05:28:48;5.83;69.02
69464;DHT22;56665;41.106;16.688;2023-02-01T05:31:53;5.78;68.71
69464;DHT22;56665;41.106;16.688;2023-02-01T05:34:57;5.85;68.22
69464;DHT22;56665;41.106;16.688;2023-02-01T05:38:00;5.81;67.97
69464;DHT22;56665;41.106;16.688;2023-02-01T05:41:04;5.86;67.98
69464;DHT22;56665;41.106;16.688;2023-02-01T05:44:08;5.81;67.95
69464;DHT22;56665;41.106;16.688;2023-02-01T05:47:11;5.78;68.19
69464;DHT22;56665;41.106;16.688;2023-02-01T05:50:16;5.76;68.09
69464;DHT22;56665;41.106;16.688;2023-02-01T05:53:20;5.79;69.24
69464;DHT22;56665;41.106;16.688;2023-02-01T05:56:24;5.81;68.81
69464;DHT22;56665;41.106;16.688;2023-02-01T05:59:28;5.83;67.88
69464;DHT22;56665;41.106;16.688;2023-02-01T06:02:31;5.83;67.66
69464;DHT22;56665;41.106;16.688;2023-02-01T06:05:35;5.85;67.70
69464;DHT22;56665;41.106;16.688;2023-02-01T06:08:40;5.87;67.81
69464;DHT22;56665;41.106;16.688;2023-02-01T06:11:44;5.83;67.73
69464;DHT22;56665;41.106;16.688;2023-02-01T06:14:49;5.81;68.06
69464;DHT22;56665;41.106;16.688;2023-02-01T06:17:53;5.79;68.38
69464;DHT22;56665;41.106;16.688;2023-02-01T06:20:59;5.78;68.13
69464;DHT22;56665;41.106;16.688;2023-02-01T06:24:03;5.75;68.24
69464;DHT22;56665;41.106;16.688;2023-02-01T06:27:07;5.71;68.68
69464;DHT22;56665;41.106;16.688;2023-02-01T06:30:13;5.71;68.54
69464;DHT22;56665;41.106;16.688;2023-02-01T06:33:20;5.66;68.83
69464;DHT22;56665;41.106;16.688;2023-02-01T06:36:24;5.69;69.36
69464;DHT22;56665;41.106;16.688;2023-02-01T06:39:28;5.75;68.32
69464;DHT22;56665;41.106;16.688;2023-02-01T06:42:32;5.81;68.64
69464;DHT22;56665;41.106;16.688;2023-02-01T06:45:36;5.92;68.75
69464;DHT22;56665;41.106;16.688;2023-02-01T06:48:40;6.00;68.00
69464;DHT22;56665;41.106;16.688;2023-02-01T06:51:44;6.18;72.32
69464;DHT22;56665;41.106;16.688;2023-02-01T06:54:49;6.30;68.34
69464;DHT22;56665;41.106;16.688;2023-02-01T06:57:54;6.40;67.31
69464;DHT22;56665;41.106;16.688;2023-02-01T07:01:00;6.59;69.27
69464;DHT22;56665;41.106;16.688;2023-02-01T07:04:10;6.76;67.69
69464;DHT22;56665;41.106;16.688;2023-02-01T07:07:13;6.93;66.88
69464;DHT22;56665;41.106;16.688;2023-02-01T07:10:19;7.20;66.46
69464;DHT22;56665;41.106;16.688;2023-02-01T07:13:23;7.44;65.10
69464;DHT22;56665;41.106;16.688;2023-02-01T07:16:27;7.77;64.43
69464;DHT22;56665;41.106;16.688;2023-02-01T07:19:32;8.09;62.85
69464;DHT22;56665;41.106;16.688;2023-02-01T07:22:36;8.38;62.51
69464;DHT22;56665;41.106;16.688;2023-02-01T07:25:41;8.60;61.20
69464;DHT22;56665;41.106;16.688;2023-02-01T07:28:45;8.89;60.72
69464;DHT22;56665;41.106;16.688;2023-02-01T07:31:50;9.16;60.55
69464;DHT22;56665;41.106;16.688;2023-02-01T07:34:53;9.46;59.67
69464;DHT22;56665;41.106;16.688;2023-02-01T07:37:58;9.68;58.98
69464;DHT22;56665;41.106;16.688;2023-02-01T07:41:04;10.01;57.85
69464;DHT22;56665;41.106;16.688;2023-02-01T07:44:08;10.26;57.77
69464;DHT22;56665;41.106;16.688;2023-02-01T07:47:12;10.53;56.26
69464;DHT22;56665;41.106;16.688;2023-02-01T07:50:16;10.80;55.72
69464;DHT22;56665;41.106;16.688;2023-02-01T07:53:19;11.03;55.16
69464;DHT22;56665;41.106;16.688;2023-02-01T07:56:24;11.19;54.03
69464;DHT22;56665;41.106;16.688;2023-02-01T07:59:28;11.49;53.80
69464;DHT22;56665;41.106;16.688;2023-02-01T08:02:32;11.77;53.38
69464;DHT22;56665;41.106;16.688;2023-02-01T08:05:35;12.07;53.08
69464;DHT22;56665;41.106;16.688;2023-02-01T08:08:40;12.30;52.13
69464;DHT22;56665;41.106;16.688;2023-02-01T08:11:43;12.55;51.58
69464;DHT22;56665;41.106;16.688;2023-02-01T08:14:47;12.85;51.26
69464;DHT22;56665;41.106;16.688;2023-02-01T08:17:51;13.20;50.45
69464;DHT22;56665;41.106;16.688;2023-02-01T08:20:55;13.55;49.51
69464;DHT22;56665;41.106;16.688;2023-02-01T08:23:59;13.81;48.91
69464;DHT22;56665;41.106;16.688;2023-02-01T08:27:03;14.01;46.52
69464;DHT22;56665;41.106;16.688;2023-02-01T08:30:07;14.26;47.12
69464;DHT22;56665;41.106;16.688;2023-02-01T08:33:11;14.40;46.31
69464;DHT22;56665;41.106;16.688;2023-02-01T08:36:15;14.57;45.39
69464;DHT22;56665;41.106;16.688;2023-02-01T08:39:19;14.73;45.49
69464;DHT22;56665;41.106;16.688;2023-02-01T08:42:23;14.85;45.85
69464;DHT22;56665;41.106;16.688;2023-02-01T08:45:45;14.98;44.96
69464;DHT22;56665;41.106;16.688;2023-02-01T08:48:49;15.18;43.73
69464;DHT22;56665;41.106;16.688;2023-02-01T08:51:53;15.39;43.05
69464;DHT22;56665;41.106;16.688;2023-02-01T08:54:57;15.57;42.80
69464;DHT22;56665;41.106;16.688;2023-02-01T08:58:00;15.81;42.79
69464;DHT22;56665;41.106;16.688;2023-02-01T09:01:05;16.08;42.82
69464;DHT22;56665;41.106;16.688;2023-02-01T09:04:09;16.39;41.24
69464;DHT22;56665;41.106;16.688;2023-02-01T09:07:13;16.75;40.26
69464;DHT22;56665;41.106;16.688;2023-02-01T09:10:17;17.08;37.92
69464;DHT22;56665;41.106;16.688;2023-02-01T09:13:20;17.49;37.10
69464;DHT22;56665;41.106;16.688;2023-02-01T09:16:25;17.86;35.58
69464;DHT22;56665;41.106;16.688;2023-02-01T09:19:29;18.17;37.84
69464;DHT22;56665;41.106;16.688;2023-02-01T09:22:33;18.58;36.48
69464;DHT22;56665;41.106;16.688;2023-02-01T09:25:37;18.95;34.50
69464;DHT22;56665;41.106;16.688;2023-02-01T09:28:41;19.22;32.74
69464;DHT22;56665;41.106;16.688;2023-02-01T09:31:45;19.39;33.13
69464;DHT22;56665;41.106;16.688;2023-02-01T09:34:50;19.63;31.06
69464;DHT22;56665;41.106;16.688;2023-02-01T09:37:53;19.79;30.48
69464;DHT22;56665;41.106;16.688;2023-02-01T09:40:58;19.87;31.25
69464;DHT22;56665;41.106;16.688;2023-02-01T09:44:25;19.66;32.82
69464;DHT22;56665;41.106;16.688;2023-02-01T09:47:45;19.79;30.98
69464;DHT22;56665;41.106;16.688;2023-02-01T09:50:57;19.98;28.44
69464;DHT22;56665;41.106;16.688;2023-02-01T09:54:22;20.00;29.71
69464;DHT22;56665;41.106;16.688;2023-02-01T09:58:00;20.02;30.57
69464;DHT22;56665;41.106;16.688;2023-02-01T10:01:19;19.89;29.81
69464;DHT22;56665;41.106;16.688;2023-02-01T10:04:25;19.47;26.35
69464;DHT22;56665;41.106;16.688;2023-02-01T10:07:49;19.39;27.29
69464;DHT22;56665;41.106;16.688;2023-02-01T10:15:12;19.35;28.33
69464;DHT22;56665;41.106;16.688;2023-02-01T10:22:01;19.26;27.20
69464;DHT22;56665;41.106;16.688;2023-02-01T10:28:25;19.02;28.50
69464;DHT22;56665;41.106;16.688;2023-02-01T10:31:31;18.85;29.89
69464;DHT22;56665;41.106;16.688;2023-02-01T10:34:36;18.75;29.82
69464;DHT22;56665;41.106;16.688;2023-02-01T10:37:41;18.67;28.50
69464;DHT22;56665;41.106;16.688;2023-02-01T10:40:46;18.67;29.48
69464;DHT22;56665;41.106;16.688;2023-02-01T10:43:57;18.63;30.82
69464;DHT22;56665;41.106;16.688;2023-02-01T10:47:02;18.50;31.43
69464;DHT22;56665;41.106;16.688;2023-02-01T10:53:24;18.40;29.26
69464;DHT22;56665;41.106;16.688;2023-02-01T10:56:29;18.34;30.11
69464;DHT22;56665;41.106;16.688;2023-02-01T10:59:34;18.38;29.11
69464;DHT22;56665;41.106;16.688;2023-02-01T11:02:39;18.27;30.45
69464;DHT22;56665;41.106;16.688;2023-02-01T11:05:45;17.99;29.54
69464;DHT22;56665;41.106;16.688;2023-02-01T11:08:58;17.85;29.07
69464;DHT22;56665;41.106;16.688;2023-02-01T11:12:03;17.58;30.47
69464;DHT22;56665;41.106;16.688;2023-02-01T11:15:23;16.95;30.99
69464;DHT22;56665;41.106;16.688;2023-02-01T11:18:29;17.10;31.00
69464;DHT22;56665;41.106;16.688;2023-02-01T11:21:34;17.23;30.58
69464;DHT22;56665;41.106;16.688;2023-02-01T11:24:38;17.00;30.55
69464;DHT22;56665;41.106;16.688;2023-02-01T11:27:43;16.87;29.47
69464;DHT22;56665;41.106;16.688;2023-02-01T11:30:47;16.90;29.93
69464;DHT22;56665;41.106;16.688;2023-02-01T11:33:55;17.00;30.46
69464;DHT22;56665;41.106;16.688;2023-02-01T11:37:01;17.18;30.57
69464;DHT22;56665;41.106;16.688;2023-02-01T11:43:28;17.37;32.78
69464;DHT22;56665;41.106;16.688;2023-02-01T11:46:34;17.42;31.61
69464;DHT22;56665;41.106;16.688;2023-02-01T11:49:38;17.31;32.13
69464;DHT22;56665;41.106;16.688;2023-02-01T11:52:54;16.32;33.57
69464;DHT22;56665;41.106;16.688;2023-02-01T11:57:07;15.74;34.62
69464;DHT22;56665;41.106;16.688;2023-02-01T12:35:01;14.85;36.94
69464;DHT22;56665;41.106;16.688;2023-02-01T12:38:10;14.71;37.78
69464;DHT22;56665;41.106;16.688;2023-02-01T12:51:07;14.60;34.88
69464;DHT22;56665;41.106;16.688;2023-02-01T12:54:35;14.68;34.64
69464;DHT22;56665;41.106;16.688;2023-02-01T12:58:06;14.89;34.32
69464;DHT22;56665;41.106;16.688;2023-02-01T13:01:14;14.81;34.57
69464;DHT22;56665;41.106;16.688;2023-02-01T13:04:41;14.99;35.81
69464;DHT22;56665;41.106;16.688;2023-02-01T13:11:09;15.07;35.74
69464;DHT22;56665;41.106;16.688;2023-02-01T13:14:33;15.07;35.44
69464;DHT22;56665;41.106;16.688;2023-02-01T13:17:41;14.94;36.02
69464;DHT22;56665;41.106;16.688;2023-02-01T13:21:00;15.16;36.37
69464;DHT22;56665;41.106;16.688;2023-02-01T13:27:39;14.78;36.12
69464;DHT22;56665;41.106;16.688;2023-02-01T13:34:28;14.87;36.87
69464;DHT22;56665;41.106;16.688;2023-02-01T13:38:18;14.60;37.64
69464;DHT22;56665;41.106;16.688;2023-02-01T13:41:30;14.22;36.75
69464;DHT22;56665;41.106;16.688;2023-02-01T13:44:39;14.25;37.03
69464;DHT22;56665;41.106;16.688;2023-02-01T13:47:46;14.15;37.43
69464;DHT22;56665;41.106;16.688;2023-02-01T13:50:56;14.15;38.04
69464;DHT22;56665;41.106;16.688;2023-02-01T13:54:01;14.22;38.31
69464;DHT22;56665;41.106;16.688;2023-02-01T13:57:30;13.98;38.93
69464;DHT22;56665;41.106;16.688;2023-02-01T14:00:39;13.98;39.57
69464;DHT22;56665;41.106;16.688;2023-02-01T14:03:46;14.06;37.91
69464;DHT22;56665;41.106;16.688;2023-02-01T14:06:53;14.09;39.14
69464;DHT22;56665;41.106;16.688;2023-02-01T14:09:58;13.95;38.30
69464;DHT22;56665;41.106;16.688;2023-02-01T14:13:12;13.88;38.84
69464;DHT22;56665;41.106;16.688;2023-02-01T14:16:16;13.78;38.60
69464;DHT22;56665;41.106;16.688;2023-02-01T14:22:34;14.16;40.63
69464;DHT22;56665;41.106;16.688;2023-02-01T14:25:39;14.34;39.84
69464;DHT22;56665;41.106;16.688;2023-02-01T14:32:21;14.15;42.14
69464;DHT22;56665;41.106;16.688;2023-02-01T14:35:27;14.05;43.03
69464;DHT22;56665;41.106;16.688;2023-02-01T14:38:31;13.91;42.39
69464;DHT22;56665;41.106;16.688;2023-02-01T14:41:40;13.96;44.86
69464;DHT22;56665;41.106;16.688;2023-02-01T14:44:45;14.02;46.85
69464;DHT22;56665;41.106;16.688;2023-02-01T14:51:13;13.92;45.19
69464;DHT22;56665;41.106;16.688;2023-02-01T14:54:18;13.85;48.06
69464;DHT22;56665;41.106;16.688;2023-02-01T14:57:25;13.84;45.02
69464;DHT22;56665;41.106;16.688;2023-02-01T15:00:31;13.84;48.05
69464;DHT22;56665;41.106;16.688;2023-02-01T15:07:09;13.70;49.15
69464;DHT22;56665;41.106;16.688;2023-02-01T15:10:15;13.61;48.67
69464;DHT22;56665;41.106;16.688;2023-02-01T15:13:22;13.55;47.27
69464;DHT22;56665;41.106;16.688;2023-02-01T15:16:27;13.50;49.57
69464;DHT22;56665;41.106;16.688;2023-02-01T15:19:30;13.43;51.40
69464;DHT22;56665;41.106;16.688;2023-02-01T15:22:34;13.41;47.37
69464;DHT22;56665;41.106;16.688;2023-02-01T15:25:38;13.41;49.94
69464;DHT22;56665;41.106;16.688;2023-02-01T15:28:42;13.38;48.64
69464;DHT22;56665;41.106;16.688;2023-02-01T15:31:50;13.37;47.81
69464;DHT22;56665;41.106;16.688;2023-02-01T15:34:55;13.38;46.17
69464;DHT22;56665;41.106;16.688;2023-02-01T15:41:34;13.31;47.17
69464;DHT22;56665;41.106;16.688;2023-02-01T15:44:48;13.12;48.76
69464;DHT22;56665;41.106;16.688;2023-02-01T15:47:54;13.03;50.34
69464;DHT22;56665;41.106;16.688;2023-02-01T15:51:00;13.00;50.81
69464;DHT22;56665;41.106;16.688;2023-02-01T15:54:07;12.92;52.63
69464;DHT22;56665;41.106;16.688;2023-02-01T15:57:26;12.85;52.41
69464;DHT22;56665;41.106;16.688;2023-02-01T16:00:53;12.72;51.74
69464;DHT22;56665;41.106;16.688;2023-02-01T16:04:26;12.65;53.39
69464;DHT22;56665;41.106;16.688;2023-02-01T16:07:34;12.55;53.82
69464;DHT22;56665;41.106;16.688;2023-02-01T16:10:43;12.42;54.84
69464;DHT22;56665;41.106;16.688;2023-02-01T16:13:48;12.37;54.80
69464;DHT22;56665;41.106;16.688;2023-02-01T16:16:56;12.23;56.60
69464;DHT22;56665;41.106;16.688;2023-02-01T16:20:00;12.20;56.52
69464;DHT22;56665;41.106;16.688;2023-02-01T16:23:04;12.13;56.73
69464;DHT22;56665;41.106;16.688;2023-02-01T16:26:08;12.03;57.40
69464;DHT22;56665;41.106;16.688;2023-02-01T16:29:12;11.91;56.85
69464;DHT22;56665;41.106;16.688;2023-02-01T16:32:21;11.86;57.64
69464;DHT22;56665;41.106;16.688;2023-02-01T16:35:35;11.77;58.15
69464;DHT22;56665;41.106;16.688;2023-02-01T16:38:40;11.80;57.62
69464;DHT22;56665;41.106;16.688;2023-02-01T16:41:45;11.79;57.11
69464;DHT22;56665;41.106;16.688;2023-02-01T16:44:52;11.70;58.21
69464;DHT22;56665;41.106;16.688;2023-02-01T16:47:56;11.56;58.49
69464;DHT22;56665;41.106;16.688;2023-02-01T16:51:11;11.61;59.89
69464;DHT22;56665;41.106;16.688;2023-02-01T16:54:16;11.47;60.90
69464;DHT22;56665;41.106;16.688;2023-02-01T16:57:20;11.41;61.22
69464;DHT22;56665;41.106;16.688;2023-02-01T17:00:27;11.32;62.13
69464;DHT22;56665;41.106;16.688;2023-02-01T17:03:34;11.37;62.23
69464;DHT22;56665;41.106;16.688;2023-02-01T17:06:39;11.29;62.63
69464;DHT22;56665;41.106;16.688;2023-02-01T17:09:47;11.25;62.81
69464;DHT22;56665;41.106;16.688;2023-02-01T17:12:51;11.28;63.52
69464;DHT22;56665;41.106;16.688;2023-02-01T17:16:03;11.19;62.84
69464;DHT22;56665;41.106;16.688;2023-02-01T17:19:13;11.10;64.04
69464;DHT22;56665;41.106;16.688;2023-02-01T17:22:23;10.90;64.99
69464;DHT22;56665;41.106;16.688;2023-02-01T17:25:29;10.76;65.43
69464;DHT22;56665;41.106;16.688;2023-02-01T17:28:35;10.75;64.72
69464;DHT22;56665;41.106;16.688;2023-02-01T17:31:42;10.63;64.92
69464;DHT22;56665;41.106;16.688;2023-02-01T17:34:46;10.60;64.63
69464;DHT22;56665;41.106;16.688;2023-02-01T17:37:51;10.46;65.47
69464;DHT22;56665;41.106;16.688;2023-02-01T17:40:55;10.40;66.17
69464;DHT22;56665;41.106;16.688;2023-02-01T17:44:02;10.39;66.29
69464;DHT22;56665;41.106;16.688;2023-02-01T17:47:06;10.30;66.19
69464;DHT22;56665;41.106;16.688;2023-02-01T17:50:10;10.26;66.80
69464;DHT22;56665;41.106;16.688;2023-02-01T17:53:15;10.24;66.92
69464;DHT22;56665;41.106;16.688;2023-02-01T17:56:24;10.19;66.67
69464;DHT22;56665;41.106;16.688;2023-02-01T17:59:30;10.11;67.26
69464;DHT22;56665;41.106;16.688;2023-02-01T18:02:34;10.02;67.30
69464;DHT22;56665;41.106;16.688;2023-02-01T18:05:39;9.93;67.81
69464;DHT22;56665;41.106;16.688;2023-02-01T18:08:45;9.88;68.25
69464;DHT22;56665;41.106;16.688;2023-02-01T18:11:48;9.83;68.72
69464;DHT22;56665;41.106;16.688;2023-02-01T18:14:52;9.75;68.69
69464;DHT22;56665;41.106;16.688;2023-02-01T18:17:57;9.67;69.28
69464;DHT22;56665;41.106;16.688;2023-02-01T18:21:02;9.66;70.34
69464;DHT22;56665;41.106;16.688;2023-02-01T18:24:06;9.60;70.09
69464;DHT22;56665;41.106;16.688;2023-02-01T18:27:12;9.57;70.29
69464;DHT22;56665;41.106;16.688;2023-02-01T18:30:17;9.53;70.06
69464;DHT22;56665;41.106;16.688;2023-02-01T18:33:21;9.50;69.80
69464;DHT22;56665;41.106;16.688;2023-02-01T18:36:27;9.44;70.37
69464;DHT22;56665;41.106;16.688;2023-02-01T18:39:33;9.44;70.67
69464;DHT22;56665;41.106;16.688;2023-02-01T18:42:40;9.44;70.30
69464;DHT22;56665;41.106;16.688;2023-02-01T18:45:46;9.44;70.52
69464;DHT22;56665;41.106;16.688;2023-02-01T18:48:50;9.40;70.23
69464;DHT22;56665;41.106;16.688;2023-02-01T18:51:55;9.35;70.61
69464;DHT22;56665;41.106;16.688;2023-02-01T18:55:00;9.30;70.54
69464;DHT22;56665;41.106;16.688;2023-02-01T18:58:05;9.25;70.71
69464;DHT22;56665;41.106;16.688;2023-02-01T19:01:20;9.25;71.00
69464;DHT22;56665;41.106;16.688;2023-02-01T19:04:24;9.20;70.94
69464;DHT22;56665;41.106;16.688;2023-02-01T19:07:28;9.12;71.26
69464;DHT22;56665;41.106;16.688;2023-02-01T19:10:33;9.05;71.66
69464;DHT22;56665;41.106;16.688;2023-02-01T19:13:41;9.04;71.39
69464;DHT22;56665;41.106;16.688;2023-02-01T19:16:49;9.05;70.96
69464;DHT22;56665;41.106;16.688;2023-02-01T19:19:54;8.99;71.19
69464;DHT22;56665;41.106;16.688;2023-02-01T19:23:02;8.98;71.39
69464;DHT22;56665;41.106;16.688;2023-02-01T19:26:24;8.95;71.28
69464;DHT22;56665;41.106;16.688;2023-02-01T19:29:30;8.91;71.74
69464;DHT22;56665;41.106;16.688;2023-02-01T19:32:33;8.92;71.42
69464;DHT22;56665;41.106;16.688;2023-02-01T19:35:40;8.95;71.58
69464;DHT22;56665;41.106;16.688;2023-02-01T19:38:44;8.94;71.42
69464;DHT22;56665;41.106;16.688;2023-02-01T19:41:49;8.95;71.51
69464;DHT22;56665;41.106;16.688;2023-02-01T19:44:46;8.91;71.57
69464;DHT22;56665;41.106;16.688;2023-02-01T19:47:51;8.85;71.68
69464;DHT22;56665;41.106;16.688;2023-02-01T19:50:55;8.89;72.07
69464;DHT22;56665;41.106;16.688;2023-02-01T19:54:01;8.98;72.18
69464;DHT22;56665;41.106;16.688;2023-02-01T19:57:05;9.04;71.48
69464;DHT22;56665;41.106;16.688;2023-02-01T20:00:10;9.09;71.62
69464;DHT22;56665;41.106;16.688;2023-02-01T20:03:17;9.15;71.75
69464;DHT22;56665;41.106;16.688;2023-02-01T20:06:21;9.23;71.50
69464;DHT22;56665;41.106;16.688;2023-02-01T20:09:27;9.25;71.09
69464;DHT22;56665;41.106;16.688;2023-02-01T20:12:32;9.28;70.49
69464;DHT22;56665;41.106;16.688;2023-02-01T20:15:37;9.26;70.75
69464;DHT22;56665;41.106;16.688;2023-02-01T20:18:40;9.22;70.82
69464;DHT22;56665;41.106;16.688;2023-02-01T20:21:44;9.16;70.52
69464;DHT22;56665;41.106;16.688;2023-02-01T20:24:48;9.09;70.53
69464;DHT22;56665;41.106;16.688;2023-02-01T20:27:53;9.16;71.18
69464;DHT22;56665;41.106;16.688;2023-02-01T20:31:01;9.18;70.79
69464;DHT22;56665;41.106;16.688;2023-02-01T20:34:05;9.28;70.22
69464;DHT22;56665;41.106;16.688;2023-02-01T20:37:08;9.30;69.53
69464;DHT22;56665;41.106;16.688;2023-02-01T20:40:13;9.30;69.14
69464;DHT22;56665;41.106;16.688;2023-02-01T20:43:17;9.23;69.31
69464;DHT22;56665;41.106;16.688;2023-02-01T20:46:22;9.23;69.31
69464;DHT22;56665;41.106;16.688;2023-02-01T20:49:26;9.20;69.03
69464;DHT22;56665;41.106;16.688;2023-02-01T20:52:30;9.18;69.48
69464;DHT22;56665;41.106;16.688;2023-02-01T20:55:34;9.16;69.86
69464;DHT22;56665;41.106;16.688;2023-02-01T20:58:38;9.15;69.61
69464;DHT22;56665;41.106;16.688;2023-02-01T21:01:42;9.14;69.32
69464;DHT22;56665;41.106;16.688;2023-02-01T21:04:55;9.14;69.32
69464;DHT22;56665;41.106;16.688;2023-02-01T21:08:00;9.05;69.40
69464;DHT22;56665;41.106;16.688;2023-02-01T21:11:09;9.02;69.60
69464;DHT22;56665;41.106;16.688;2023-02-01T21:14:13;8.98;70.06
69464;DHT22;56665;41.106;16.688;2023-02-01T21:17:16;9.01;70.19
69464;DHT22;56665;41.106;16.688;2023-02-01T21:20:20;8.99;70.39
69464;DHT22;56665;41.106;16.688;2023-02-01T21:23:24;8.98;70.52
69464;DHT22;56665;41.106;16.688;2023-02-01T21:26:28;9.01;70.26